Time,TemperatureF,DewpointF,PressureIn,WindDirection,WindDirectionDegrees,WindSpeedMPH,WindSpeedGustMPH,Humidity,HourlyPrecipIn,Conditions,Clouds,dailyrainin,SoftwareType,DateUTC
2013-10-10 00:05:00,56.5,53.0,30.09,ENE,76,0.0,0.0,87,0.00,,,0.00,weatherlink.com 1.10,2013-10-10 04:05:00,
2013-10-10 00:20:00,55.9,52.0,30.09,ENE,77,0.0,1.0,88,0.00,,,0.00,weatherlink.com 1.10,2013-10-10 04:20:00,
2013-10-10 00:35:00,56.3,53.0,30.09,SSE,163,0.0,0.0,89,0.00,,,0.00,weatherlink.com 1.10,2013-10-10 04:35:00,
2013-10-10 00:50:00,55.8,53.0,30.09,SSE,163,0.0,0.0,90,0.00,,,0.00,weatherlink.com 1.10,2013-10-10 04:50:00,
2013-10-10 01:05:00,55.6,53.0,30.08,SSE,163,0.0,0.0,91,0.00,,,0.00,weatherlink.com 1.10,2013-10-10 05:05:00,
2013-10-10 01:20:00,55.4,53.0,30.09,SSE,163,0.0,0.0,91,0.00,,,0.00,weatherlink.com 1.10,2013-10-10 05:20:00,
2013-10-10 01:35:00,55.3,53.0,30.09,SSE,163,0.0,0.0,90,0.00,,,0.00,weatherlink.com 1.10,2013-10-10 05:35:00,
2013-10-10 01:50:00,55.1,52.0,30.08,SSE,163,0.0,0.0,90,0.00,,,0.00,weatherlink.com 1.10,2013-10-10 05:50:00,
2013-10-10 02:05:00,55.0,52.0,30.09,SSE,163,0.0,0.0,89,0.00,,,0.00,weatherlink.com 1.10,2013-10-10 06:05:00,
2013-10-10 02:20:00,54.7,52.0,30.09,SSE,163,0.0,0.0,89,0.00,,,0.00,weatherlink.com 1.10,2013-10-10 06:20:00,
2013-10-10 02:35:00,54.1,51.0,30.09,SSE,163,0.0,0.0,89,0.00,,,0.00,weatherlink.com 1.10,2013-10-10 06:35:00,
2013-10-10 02:50:00,53.7,51.0,30.09,SSE,163,0.0,0.0,90,0.00,,,0.00,weatherlink.com 1.10,2013-10-10 06:50:00,
2013-10-10 03:05:00,53.4,51.0,30.09,SSE,163,0.0,0.0,91,0.00,,,0.00,weatherlink.com 1.10,2013-10-10 07:05:00,
2013-10-10 03:20:00,53.5,51.0,30.09,SSE,163,0.0,0.0,91,0.00,,,0.00,weatherlink.com 1.10,2013-10-10 07:20:00,
2013-10-10 03:35:00,53.6,51.0,30.09,SSE,163,0.0,0.0,91,0.00,,,0.00,weatherlink.com 1.10,2013-10-10 07:35:00,
2013-10-10 03:50:00,53.9,51.0,30.09,SSE,163,0.0,0.0,90,0.00,,,0.00,weatherlink.com 1.10,2013-10-10 07:50:00,
2013-10-10 04:05:00,53.8,51.0,30.09,SSE,163,0.0,0.0,89,0.00,,,0.00,weatherlink.com 1.10,2013-10-10 08:05:00,
2013-10-10 04:20:00,53.4,50.0,30.09,SSE,163,0.0,0.0,89,0.00,,,0.00,weatherlink.com 1.10,2013-10-10 08:20:00,
2013-10-10 04:35:00,53.4,50.0,30.09,SSE,163,0.0,0.0,88,0.00,,,0.00,weatherlink.com 1.10,2013-10-10 08:35:00,
2013-10-10 04:50:00,53.8,50.0,30.09,SSE,163,0.0,0.0,86,0.00,,,0.00,weatherlink.com 1.10,2013-10-10 08:50:00,
2013-10-10 05:05:00,53.6,50.0,30.09,SSE,163,0.0,0.0,87,0.00,,,0.00,weatherlink.com 1.10,2013-10-10 09:05:00,
2013-10-10 05:20:00,53.2,50.0,30.10,SSE,163,0.0,0.0,87,0.00,,,0.00,weatherlink.com 1.10,2013-10-10 09:20:00,
2013-10-10 05:35:00,52.6,50.0,30.10,SSE,163,0.0,0.0,89,0.00,,,0.00,weatherlink.com 1.10,2013-10-10 09:35:00,
2013-10-10 05:51:00,52.5,49.0,30.10,SSE,163,0.0,0.0,89,0.00,,,0.00,weatherlink.com 1.10,2013-10-10 09:51:00,
2013-10-10 06:06:00,52.4,49.0,30.10,SSE,163,0.0,0.0,89,0.00,,,0.00,weatherlink.com 1.10,2013-10-10 10:06:00,
2013-10-10 06:21:00,52.3,49.0,30.10,SSE,163,0.0,0.0,88,0.00,,,0.00,weatherlink.com 1.10,2013-10-10 10:21:00,
2013-10-10 06:36:00,52.2,49.0,30.10,SSE,163,0.0,0.0,87,0.00,,,0.00,weatherlink.com 1.10,2013-10-10 10:36:00,
2013-10-10 06:51:00,51.7,48.0,30.10,SSE,163,0.0,0.0,87,0.00,,,0.00,weatherlink.com 1.10,2013-10-10 10:51:00,
2013-10-10 07:06:00,50.9,47.0,30.10,SSE,163,0.0,0.0,87,0.00,,,0.00,weatherlink.com 1.10,2013-10-10 11:06:00,
2013-10-10 07:21:00,50.5,47.0,30.10,SSE,163,0.0,0.0,88,0.00,,,0.00,weatherlink.com 1.10,2013-10-10 11:21:00,
2013-10-10 07:36:00,50.3,47.0,30.10,SSE,163,0.0,0.0,89,0.00,,,0.00,weatherlink.com 1.10,2013-10-10 11:36:00,
2013-10-10 07:51:00,50.2,47.0,30.11,SSE,163,0.0,0.0,90,0.00,,,0.00,weatherlink.com 1.10,2013-10-10 11:51:00,
2013-10-10 08:06:00,49.6,47.0,30.11,SSE,163,0.0,0.0,91,0.00,,,0.00,weatherlink.com 1.10,2013-10-10 12:06:00,
2013-10-10 08:21:00,49.9,48.0,30.11,SSE,163,0.0,0.0,92,0.00,,,0.00,weatherlink.com 1.10,2013-10-10 12:21:00,
2013-10-10 08:36:00,52.2,50.0,30.12,SSE,163,0.0,0.0,92,0.00,,,0.00,weatherlink.com 1.10,2013-10-10 12:36:00,
2013-10-10 08:51:00,55.1,52.0,30.12,SE,135,0.0,0.0,88,0.00,,,0.00,weatherlink.com 1.10,2013-10-10 12:51:00,
2013-10-10 09:06:00,56.9,53.0,30.12,ESE,117,0.0,0.0,86,0.00,,,0.00,weatherlink.com 1.10,2013-10-10 13:06:00,
2013-10-10 09:21:00,58.2,52.0,30.12,SE,138,1.0,1.0,81,0.00,,,0.00,weatherlink.com 1.10,2013-10-10 13:21:00,
2013-10-10 09:36:00,60.0,52.0,30.12,ESE,109,0.0,2.0,75,0.00,,,0.00,weatherlink.com 1.10,2013-10-10 13:36:00,
2013-10-10 09:51:00,59.8,53.0,30.13,SE,142,0.0,1.0,78,0.00,,,0.00,weatherlink.com 1.10,2013-10-10 13:51:00,
2013-10-10 10:06:00,59.9,53.0,30.13,SSE,151,0.0,1.0,78,0.00,,,0.00,weatherlink.com 1.10,2013-10-10 14:06:00,
2013-10-10 10:21:00,60.7,54.0,30.13,SSE,148,0.0,1.0,79,0.00,,,0.00,weatherlink.com 1.10,2013-10-10 14:21:00,
2013-10-10 10:36:00,61.9,54.0,30.13,ESE,108,1.0,3.0,75,0.00,,,0.00,weatherlink.com 1.10,2013-10-10 14:36:00,
2013-10-10 10:51:00,63.2,56.0,30.13,ENE,72,0.0,1.0,76,0.00,,,0.00,weatherlink.com 1.10,2013-10-10 14:51:00,
2013-10-10 11:06:00,65.1,56.0,30.13,ESE,104,0.0,1.0,72,0.00,,,0.00,weatherlink.com 1.10,2013-10-10 15:06:00,
2013-10-10 11:21:00,67.0,57.0,30.13,ESE,108,2.0,2.0,71,0.00,,,0.00,weatherlink.com 1.10,2013-10-10 15:21:00,
2013-10-10 11:36:00,67.7,57.0,30.13,SSW,201,0.0,2.0,69,0.00,,,0.00,weatherlink.com 1.10,2013-10-10 15:36:00,
2013-10-10 11:51:00,69.3,59.0,30.12,SE,145,0.0,3.0,69,0.00,,,0.00,weatherlink.com 1.10,2013-10-10 15:51:00,
2013-10-10 12:06:00,70.8,59.0,30.12,ESE,111,2.0,3.0,66,0.00,,,0.00,weatherlink.com 1.10,2013-10-10 16:06:00,
2013-10-10 12:22:00,72.0,58.0,30.12,East,100,2.0,3.0,62,0.00,,,0.00,weatherlink.com 1.10,2013-10-10 16:22:00,
2013-10-10 12:37:00,72.4,59.0,30.12,West,267,2.0,3.0,64,0.00,,,0.00,weatherlink.com 1.10,2013-10-10 16:37:00,
2013-10-10 12:52:00,70.6,56.0,30.11,ESE,117,0.0,4.0,60,0.00,,,0.00,weatherlink.com 1.10,2013-10-10 16:52:00,
2013-10-10 13:07:00,72.4,56.0,30.11,SW,231,1.0,5.0,57,0.00,,,0.00,weatherlink.com 1.10,2013-10-10 17:07:00,
2013-10-10 13:22:00,73.5,57.0,30.10,ESE,120,4.0,4.0,56,0.00,,,0.00,weatherlink.com 1.10,2013-10-10 17:22:00,
2013-10-10 13:37:00,71.7,56.0,30.10,NNE,20,1.0,3.0,58,0.00,,,0.00,weatherlink.com 1.10,2013-10-10 17:37:00,
2013-10-10 13:52:00,72.7,58.0,30.09,West,274,0.0,1.0,61,0.00,,,0.00,weatherlink.com 1.10,2013-10-10 17:52:00,
2013-10-10 14:07:00,74.2,57.0,30.09,ENE,58,1.0,4.0,56,0.00,,,0.00,weatherlink.com 1.10,2013-10-10 18:07:00,
2013-10-10 14:22:00,73.7,58.0,30.09,ESE,103,2.0,4.0,58,0.00,,,0.00,weatherlink.com 1.10,2013-10-10 18:22:00,
2013-10-10 14:37:00,72.3,58.0,30.08,NNE,27,0.0,2.0,61,0.00,,,0.00,weatherlink.com 1.10,2013-10-10 18:37:00,
2013-10-10 14:52:00,74.3,57.0,30.07,SW,232,0.0,3.0,56,0.00,,,0.00,weatherlink.com 1.10,2013-10-10 18:52:00,
2013-10-10 15:07:00,75.2,57.0,30.07,ESE,112,0.0,3.0,53,0.00,,,0.00,weatherlink.com 1.10,2013-10-10 19:07:00,
2013-10-10 15:22:00,73.7,57.0,30.06,NNE,32,0.0,1.0,57,0.00,,,0.00,weatherlink.com 1.10,2013-10-10 19:22:00,
2013-10-10 15:52:00,75.3,58.0,30.06,SW,215,0.0,0.0,55,0.00,,,0.00,weatherlink.com 1.10,2013-10-10 19:52:00,
2013-10-10 16:07:00,76.1,59.0,30.05,SSW,208,0.0,0.0,55,0.00,,,0.00,weatherlink.com 1.10,2013-10-10 20:07:00,
2013-10-10 16:22:00,76.7,59.0,30.04,SE,134,0.0,3.0,54,0.00,,,0.00,weatherlink.com 1.10,2013-10-10 20:22:00,
2013-10-10 16:37:00,75.0,58.0,30.03,NNW,343,0.0,4.0,55,0.00,,,0.00,weatherlink.com 1.10,2013-10-10 20:37:00,
2013-10-10 16:52:00,74.6,57.0,30.03,East,101,1.0,3.0,54,0.00,,,0.00,weatherlink.com 1.10,2013-10-10 20:52:00,
2013-10-10 17:07:00,73.7,56.0,30.03,SSE,154,0.0,3.0,55,0.00,,,0.00,weatherlink.com 1.10,2013-10-10 21:07:00,
2013-10-10 17:22:00,74.5,57.0,30.03,WSW,246,0.0,1.0,55,0.00,,,0.00,weatherlink.com 1.10,2013-10-10 21:22:00,
2013-10-10 17:37:00,72.8,57.0,30.03,WSW,245,0.0,0.0,58,0.00,,,0.00,weatherlink.com 1.10,2013-10-10 21:37:00,
2013-10-10 17:52:00,70.0,57.0,30.03,North,355,0.0,0.0,64,0.00,,,0.00,weatherlink.com 1.10,2013-10-10 21:52:00,
2013-10-10 18:07:00,68.1,57.0,30.03,North,360,0.0,0.0,68,0.00,,,0.00,weatherlink.com 1.10,2013-10-10 22:07:00,
2013-10-10 18:22:00,67.8,57.0,30.03,SE,135,0.0,0.0,68,0.00,,,0.00,weatherlink.com 1.10,2013-10-10 22:22:00,
2013-10-10 18:37:00,67.3,57.0,30.02,SE,136,0.0,0.0,70,0.00,,,0.00,weatherlink.com 1.10,2013-10-10 22:37:00,
2013-10-10 18:52:00,66.2,57.0,30.02,SE,135,0.0,0.0,73,0.00,,,0.00,weatherlink.com 1.10,2013-10-10 22:52:00,
2013-10-10 19:07:00,64.4,57.0,30.02,SE,135,0.0,0.0,76,0.00,,,0.00,weatherlink.com 1.10,2013-10-10 23:07:00,
2013-10-10 19:22:00,63.0,56.0,30.02,SE,135,0.0,0.0,79,0.00,,,0.00,weatherlink.com 1.10,2013-10-10 23:22:00,
2013-10-10 19:37:00,61.9,56.0,30.02,SE,135,0.0,0.0,82,0.00,,,0.00,weatherlink.com 1.10,2013-10-10 23:37:00,
2013-10-10 19:52:00,60.9,56.0,30.02,SE,135,0.0,0.0,83,0.00,,,0.00,weatherlink.com 1.10,2013-10-10 23:52:00,
2013-10-10 20:07:00,60.7,56.0,30.02,SE,135,0.0,0.0,83,0.00,,,0.00,weatherlink.com 1.10,2013-10-11 00:07:00,
2013-10-10 20:22:00,60.4,55.0,30.02,SE,135,0.0,0.0,83,0.00,,,0.00,weatherlink.com 1.10,2013-10-11 00:22:00,
2013-10-10 20:37:00,59.8,55.0,30.02,SE,135,0.0,0.0,84,0.00,,,0.00,weatherlink.com 1.10,2013-10-11 00:37:00,
2013-10-10 20:52:00,59.3,55.0,30.02,SE,135,0.0,0.0,85,0.00,,,0.00,weatherlink.com 1.10,2013-10-11 00:52:00,
2013-10-10 21:07:00,59.3,55.0,30.02,SE,135,0.0,0.0,84,0.00,,,0.00,weatherlink.com 1.10,2013-10-11 01:07:00,
2013-10-10 21:22:00,59.1,54.0,30.02,SE,135,0.0,0.0,84,0.00,,,0.00,weatherlink.com 1.10,2013-10-11 01:22:00,
2013-10-10 21:37:00,59.0,54.0,30.02,SE,135,0.0,0.0,84,0.00,,,0.00,weatherlink.com 1.10,2013-10-11 01:37:00,
2013-10-10 21:52:00,58.7,54.0,30.02,SE,135,0.0,0.0,84,0.00,,,0.00,weatherlink.com 1.10,2013-10-11 01:52:00,
2013-10-10 22:07:00,58.3,54.0,30.02,SE,135,0.0,0.0,84,0.00,,,0.00,weatherlink.com 1.10,2013-10-11 02:07:00,
2013-10-10 22:22:00,57.5,53.0,30.02,SE,135,0.0,0.0,85,0.00,,,0.00,weatherlink.com 1.10,2013-10-11 02:22:00,
2013-10-10 22:37:00,57.1,53.0,30.02,SE,135,0.0,0.0,86,0.00,,,0.00,weatherlink.com 1.10,2013-10-11 02:37:00,
2013-10-10 22:52:00,56.6,53.0,30.02,SE,135,0.0,0.0,87,0.00,,,0.00,weatherlink.com 1.10,2013-10-11 02:52:00,
2013-10-10 23:07:00,56.4,53.0,30.02,SE,135,0.0,0.0,88,0.00,,,0.00,weatherlink.com 1.10,2013-10-11 03:07:00,
2013-10-10 23:22:00,56.5,53.0,30.02,SE,135,0.0,0.0,87,0.00,,,0.00,weatherlink.com 1.10,2013-10-11 03:22:00,
2013-10-10 23:37:00,56.1,53.0,30.01,SE,135,0.0,0.0,88,0.00,,,0.00,weatherlink.com 1.10,2013-10-11 03:37:00,
2013-10-10 23:52:00,55.9,53.0,30.01,SE,135,0.0,0.0,90,0.00,,,0.00,weatherlink.com 1.10,2013-10-11 03:52:00,